Time;durP1;ratioP1;P1;durP2;ratioP2;P2;SDS_P1;SDS_P2;PMS_P1;PMS_P2;Temp;Humidity;BMP_temperature;BMP_pressure;BME280_temperature;BME280_humidity;BME280_pressure;Samples;Min_cycle;Max_cycle;Signal;HPM_P1;HPM_P2
2022/11/27 00:01:43;;;;;;;13.37;7.13;;;;;;;7.55;72.86;102585.00;5000844;28;99116;-82
2022/11/27 00:04:10;;;;;;;14.53;7.87;;;;;;;7.52;72.98;102592.09;4997087;28;97347;-84
2022/11/27 00:06:38;;;;;;;16.30;8.50;;;;;;;7.52;72.76;102585.81;4997107;28;97393;-82
2022/11/27 00:09:09;;;;;;;13.83;7.73;;;;;;;7.49;72.96;102587.44;4999086;28;101904;-83
2022/11/27 00:11:38;;;;;;;21.20;8.37;;;;;;;7.50;72.79;102596.44;4995929;28;103014;-83
2022/11/27 00:14:03;;;;;;;14.00;7.43;;;;;;;7.45;72.70;102591.44;4993967;28;97563;-82
2022/11/27 00:16:28;;;;;;;14.37;7.60;;;;;;;7.42;72.85;102590.34;4995822;28;97617;-83
2022/11/27 00:18:54;;;;;;;18.60;7.90;;;;;;;7.40;72.70;102586.47;4993941;28;97052;-80
2022/11/27 00:21:23;;;;;;;20.77;8.50;;;;;;;7.35;72.77;102601.44;4997719;28;98910;-82
2022/11/27 00:23:49;;;;;;;19.57;8.20;;;;;;;7.35;72.60;102587.75;5000667;28;97098;-82
2022/11/27 00:26:15;;;;;;;13.60;7.70;;;;;;;7.33;72.94;102576.44;4994946;28;97018;-82
2022/11/27 00:28:40;;;;;;;16.20;7.90;;;;;;;7.28;72.96;102566.00;4999913;28;99448;-82
2022/11/27 00:31:13;;;;;;;17.93;8.60;;;;;;;7.29;72.74;102575.75;4995805;28;103585;-82
2022/11/27 00:33:38;;;;;;;17.50;9.03;;;;;;;7.27;72.54;102563.69;4997294;28;97338;-82
2022/11/27 00:36:05;;;;;;;17.70;9.00;;;;;;;7.21;72.65;102541.50;4994562;28;97256;-82
2022/11/27 00:38:31;;;;;;;16.13;8.70;;;;;;;7.19;72.75;102560.31;4994664;28;100358;-82
2022/11/27 00:41:18;;;;;;;17.87;8.93;;;;;;;7.23;72.84;102569.22;4995567;28;99090;-82
2022/11/27 00:43:43;;;;;;;18.30;8.97;;;;;;;7.20;72.66;102561.88;4991453;27;97186;-82
2022/11/27 00:46:09;;;;;;;24.20;8.30;;;;;;;7.17;72.61;102559.19;4997578;28;97261;-82
2022/11/27 00:48:35;;;;;;;22.90;8.87;;;;;;;7.15;72.81;102550.63;4993131;27;97555;-83
2022/11/27 00:51:02;;;;;;;18.93;9.10;;;;;;;7.15;72.56;102559.59;4996131;28;97382;-82
2022/11/27 00:53:28;;;;;;;15.73;8.30;;;;;;;7.13;72.58;102553.78;5000918;28;97347;-82
2022/11/27 00:55:54;;;;;;;16.63;8.13;;;;;;;7.10;72.67;102568.31;4997556;27;103064;-82
2022/11/27 00:58:20;;;;;;;17.37;8.53;;;;;;;7.09;72.55;102610.56;4988708;28;97086;-83
2022/11/27 01:00:46;;;;;;;15.00;8.00;;;;;;;7.10;72.67;102554.63;4972048;28;98985;-82
2022/11/27 01:03:11;;;;;;;22.10;8.90;;;;;;;7.07;72.68;102558.22;4979361;28;97201;-83
2022/11/27 01:05:37;;;;;;;21.40;9.20;;;;;;;7.07;72.75;102576.59;4973324;28;96940;-82
2022/11/27 01:08:03;;;;;;;21.57;9.27;;;;;;;7.03;72.58;102557.53;4972900;28;97639;-82
2022/11/27 01:10:29;;;;;;;24.50;8.80;;;;;;;7.02;72.63;102563.41;4976608;28;97549;-82
2022/11/27 01:12:54;;;;;;;19.63;8.57;;;;;;;7.01;72.56;102551.66;4977983;28;97225;-82
2022/11/27 01:15:19;;;;;;;19.47;9.17;;;;;;;7.00;72.75;102546.63;4981562;28;97606;-82
2022/11/27 01:17:45;;;;;;;22.87;10.20;;;;;;;7.00;72.73;102555.63;4979407;28;99189;-82
2022/11/27 01:20:11;;;;;;;22.07;8.87;;;;;;;6.98;72.47;102560.75;4993660;28;98554;-82
2022/11/27 01:22:36;;;;;;;24.50;9.23;;;;;;;6.97;72.59;102556.44;4999624;28;97435;-82
2022/11/27 01:25:02;;;;;;;23.60;9.63;;;;;;;6.97;72.51;102550.97;4994595;28;98519;-82
2022/11/27 01:27:27;;;;;;;21.40;9.17;;;;;;;6.96;72.64;102552.19;4994637;28;98802;-81
2022/11/27 01:29:52;;;;;;;19.20;9.00;;;;;;;6.94;72.82;102524.47;4991886;28;98566;-81
2022/11/27 01:32:18;;;;;;;18.50;9.20;;;;;;;6.93;72.55;102531.13;4990140;28;97509;-82
2022/11/27 01:34:43;;;;;;;18.40;8.13;;;;;;;6.91;72.83;102527.25;4996311;28;97113;-81
2022/11/27 01:37:08;;;;;;;21.13;8.87;;;;;;;6.83;72.66;102512.97;4996549;28;97329;-81
2022/11/27 01:39:34;;;;;;;21.03;8.93;;;;;;;6.84;72.64;102521.94;4992435;28;97458;-82
2022/11/27 01:41:59;;;;;;;15.73;9.23;;;;;;;6.76;72.59;102518.56;5001726;28;97464;-81
2022/11/27 01:44:24;;;;;;;15.33;8.37;;;;;;;6.80;72.55;102513.78;4996921;28;96163;-82
2022/11/27 01:47:06;;;;;;;15.40;8.70;;;;;;;6.80;72.59;102538.41;4995075;28;100539;-80
2022/11/27 01:49:34;;;;;;;21.30;9.83;;;;;;;6.80;72.49;102524.72;4993502;28;103006;-83
2022/11/27 01:52:04;;;;;;;17.20;8.97;;;;;;;6.79;72.60;102520.47;4979184;28;97153;-82
2022/11/27 01:54:35;;;;;;;18.30;9.53;;;;;;;6.76;72.45;102524.81;4992330;28;97174;-82
2022/11/27 01:57:06;;;;;;;16.93;8.60;;;;;;;6.75;72.45;102530.69;4973769;28;99118;-80
2022/11/27 01:59:32;;;;;;;17.43;9.30;;;;;;;6.72;72.28;102529.59;4974110;28;97649;-82
2022/11/27 02:01:59;;;;;;;17.13;8.23;;;;;;;6.72;72.56;102517.88;4980288;28;97320;-81
2022/11/27 02:04:24;;;;;;;15.40;8.00;;;;;;;6.70;72.58;102514.78;4980397;28;97019;-81
2022/11/27 02:06:50;;;;;;;23.43;9.67;;;;;;;6.69;72.33;102519.47;4979956;28;100329;-82
2022/11/27 02:09:15;;;;;;;21.40;9.30;;;;;;;6.70;72.52;102534.69;4976356;28;102355;-82
2022/11/27 02:12:23;;;;;;;23.50;9.00;;;;;;;6.69;72.08;102529.63;4979372;28;97678;-81
2022/11/27 02:14:49;;;;;;;16.47;8.60;;;;;;;6.67;72.32;102518.34;4976274;28;97247;-80
2022/11/27 02:17:25;;;;;;;26.17;10.10;;;;;;;6.69;72.41;102510.50;4980360;28;99624;-81
2022/11/27 02:20:12;;;;;;;19.57;8.90;;;;;;;6.68;72.49;102508.97;4978448;28;98833;-82
2022/11/27 02:23:00;;;;;;;21.77;9.40;;;;;;;6.67;71.97;102504.66;4977671;28;97287;-82
2022/11/27 02:26:11;;;;;;;16.23;8.03;;;;;;;6.65;72.13;102496.88;4964013;28;97591;-82
2022/11/27 02:28:55;;;;;;;16.80;8.70;;;;;;;6.65;72.36;102494.16;4971431;28;104639;-80
2022/11/27 02:31:33;;;;;;;18.70;9.23;;;;;;;6.66;72.18;102481.25;4989208;28;103932;-83
2022/11/27 02:34:09;;;;;;;23.83;9.73;;;;;;;6.67;72.41;102488.25;4981994;28;96960;-83
2022/11/27 02:36:39;;;;;;;17.20;9.80;;;;;;;6.68;72.32;102487.06;4983003;28;96746;-82
2022/11/27 02:39:11;;;;;;;20.30;10.20;;;;;;;6.72;72.42;102482.31;4980267;28;99852;-83
2022/11/27 02:42:05;;;;;;;22.40;10.90;;;;;;;6.70;72.21;102480.00;4984828;28;99755;-84
2022/11/27 02:44:35;;;;;;;23.57;10.93;;;;;;;6.71;72.60;102495.19;4997885;28;97271;-82
2022/11/27 02:47:03;;;;;;;22.37;9.97;;;;;;;6.70;72.44;102471.00;4996175;28;97214;-82
2022/11/27 02:49:30;;;;;;;26.47;11.00;;;;;;;6.69;72.48;102455.78;4999869;28;98234;-83
2022/11/27 02:52:01;;;;;;;22.53;10.00;;;;;;;6.72;72.58;102454.94;5002122;28;101155;-82
2022/11/27 02:54:29;;;;;;;21.97;9.83;;;;;;;6.73;72.23;102454.53;4994738;28;96763;-82
2022/11/27 02:56:58;;;;;;;25.53;9.60;;;;;;;6.72;72.38;102447.53;4993794;28;96904;-83
2022/11/27 02:59:28;;;;;;;21.73;9.90;;;;;;;6.73;72.63;102461.94;5001047;28;100068;-83
2022/11/27 03:02:03;;;;;;;19.57;10.27;;;;;;;6.72;72.41;102463.16;5006111;28;100029;-83
2022/11/27 03:04:36;;;;;;;24.20;11.30;;;;;;;6.69;72.55;102458.53;5006399;28;97399;-83
2022/11/27 03:07:07;;;;;;;29.43;10.73;;;;;;;6.68;72.60;102467.94;4996063;28;103467;-83
2022/11/27 03:09:43;;;;;;;22.83;9.63;;;;;;;6.65;72.42;102468.75;5002231;27;98317;-83
2022/11/27 03:12:10;;;;;;;18.90;9.87;;;;;;;6.61;72.13;102466.09;5002375;27;97739;-82
2022/11/27 03:14:38;;;;;;;22.13;9.10;;;;;;;6.57;72.33;102483.78;4988257;28;96963;-82
2022/11/27 03:17:08;;;;;;;19.77;9.33;;;;;;;6.55;72.29;102475.97;4984778;28;97142;-83
2022/11/27 03:19:34;;;;;;;19.43;8.70;;;;;;;6.51;72.28;102469.81;4980479;28;99573;-84
2022/11/27 03:22:01;;;;;;;13.10;7.13;;;;;;;6.48;72.12;102462.47;4975657;28;98182;-84
2022/11/27 03:24:28;;;;;;;19.27;8.57;;;;;;;6.44;71.97;102471.91;4980565;28;97015;-83
2022/11/27 03:26:56;;;;;;;20.93;9.37;;;;;;;6.39;71.88;102456.00;4974542;28;97868;-83
2022/11/27 03:29:29;;;;;;;18.00;8.87;;;;;;;6.33;71.95;102463.13;4982222;28;99836;-84
2022/11/27 03:31:55;;;;;;;19.60;8.70;;;;;;;6.26;71.91;102488.63;4981767;28;99409;-84
2022/11/27 03:34:21;;;;;;;19.70;9.03;;;;;;;6.19;71.78;102447.75;4984857;28;97259;-84
2022/11/27 03:36:46;;;;;;;15.33;8.50;;;;;;;6.17;71.82;102471.22;4973293;28;97415;-85
2022/11/27 03:39:12;;;;;;;17.67;9.10;;;;;;;6.12;71.72;102479.88;4997516;28;97852;-84
2022/11/27 03:41:52;;;;;;;35.83;10.20;;;;;;;6.07;71.38;102466.72;5001675;28;97668;-84
2022/11/27 03:44:39;;;;;;;30.33;9.00;;;;;;;5.99;71.68;102463.34;4996772;28;97356;-83
2022/11/27 03:47:28;;;;;;;15.00;7.60;;;;;;;5.88;71.33;102477.16;4998453;28;97222;-84
2022/11/27 03:49:59;;;;;;;37.87;9.70;;;;;;;5.81;71.39;102468.31;5001380;28;103911;-83
2022/11/27 03:53:07;;;;;;;35.23;8.20;;;;;;;5.74;71.45;102460.22;4998515;28;100478;-83
2022/11/27 03:55:40;;;;;;;11.37;6.63;;;;;;;5.69;71.73;102464.19;5001513;28;97308;-83
2022/11/27 03:58:11;;;;;;;19.80;8.97;;;;;;;5.68;71.91;102470.81;4998651;28;97141;-84
2022/11/27 04:00:41;;;;;;;40.67;9.93;;;;;;;5.63;71.49;102460.41;4998296;28;98517;-83
2022/11/27 04:03:10;;;;;;;19.30;9.47;;;;;;;5.60;71.74;102471.34;5000278;28;98694;-83
2022/11/27 04:05:36;;;;;;;19.93;8.83;;;;;;;5.53;71.56;102458.56;5000986;28;97336;-82
2022/11/27 04:08:01;;;;;;;19.00;8.73;;;;;;;5.48;71.68;102455.56;5002385;28;96820;-83
2022/11/27 04:10:32;;;;;;;25.40;8.90;;;;;;;5.44;71.54;102493.06;5010707;28;99742;-84
2022/11/27 04:12:58;;;;;;;16.90;8.03;;;;;;;5.40;71.55;102463.06;5007525;28;101811;-83
2022/11/27 04:15:23;;;;;;;22.70;9.37;;;;;;;5.35;71.73;102451.84;5013708;28;96921;-83
2022/11/27 04:17:49;;;;;;;23.23;9.83;;;;;;;5.25;71.67;102439.91;5009394;28;98212;-84
2022/11/27 04:20:14;;;;;;;26.40;10.23;;;;;;;5.30;71.65;102447.63;5015503;28;96642;-82
2022/11/27 04:22:40;;;;;;;26.70;10.37;;;;;;;5.27;71.57;102424.66;5006008;28;99261;-84
2022/11/27 04:25:06;;;;;;;22.20;9.73;;;;;;;5.23;71.38;102436.81;5014238;28;100130;-84
2022/11/27 04:27:31;;;;;;;31.30;11.17;;;;;;;5.17;71.68;102433.00;5003167;28;97001;-83
2022/11/27 04:29:57;;;;;;;22.20;9.63;;;;;;;5.14;71.85;102445.50;5012582;28;96727;-84
2022/11/27 04:32:22;;;;;;;24.73;10.80;;;;;;;5.16;71.61;102421.31;5000077;28;98994;-83
2022/11/27 04:34:47;;;;;;;24.63;9.63;;;;;;;5.11;71.50;102419.03;5015437;28;97305;-82
2022/11/27 04:37:13;;;;;;;22.57;9.97;;;;;;;5.04;71.69;102410.19;5007022;28;97321;-82
2022/11/27 04:39:38;;;;;;;21.37;9.87;;;;;;;5.04;71.58;102432.78;5000908;28;100279;-83
2022/11/27 04:42:04;;;;;;;21.70;9.07;;;;;;;5.03;71.60;102419.53;4995811;28;100158;-81
2022/11/27 04:44:29;;;;;;;33.10;10.90;;;;;;;5.00;71.66;102429.31;4998242;28;97052;-80
2022/11/27 04:46:54;;;;;;;29.40;10.93;;;;;;;4.99;71.69;102421.56;4999261;28;97253;-82
2022/11/27 04:49:20;;;;;;;20.63;9.57;;;;;;;4.99;71.58;102421.56;4997182;28;99828;-82
2022/11/27 04:51:45;;;;;;;19.13;9.50;;;;;;;4.95;71.57;102427.06;4996011;28;99343;-82
2022/11/27 04:54:11;;;;;;;19.90;9.93;;;;;;;4.94;71.55;102408.38;5001783;28;96905;-82
2022/11/27 04:56:36;;;;;;;24.40;9.97;;;;;;;4.94;72.02;102411.09;5001208;28;97328;-83
2022/11/27 04:59:03;;;;;;;24.67;9.83;;;;;;;4.97;71.43;102423.91;4999541;28;100354;-83
2022/11/27 05:01:28;;;;;;;18.03;9.30;;;;;;;4.97;71.55;102410.28;4997849;28;99049;-82
2022/11/27 05:03:53;;;;;;;23.80;10.57;;;;;;;4.93;71.50;102401.38;5001152;28;97037;-83
2022/11/27 05:06:21;;;;;;;24.97;10.03;;;;;;;4.94;71.49;102408.38;4993786;28;97110;-83
2022/11/27 05:08:47;;;;;;;22.33;9.50;;;;;;;4.92;71.52;102399.81;4999210;28;97678;-82
2022/11/27 05:11:14;;;;;;;23.07;9.77;;;;;;;4.87;71.54;102431.06;4996731;28;99281;-82
2022/11/27 05:13:40;;;;;;;21.50;10.50;;;;;;;4.91;71.69;102381.94;4996794;28;96864;-82
2022/11/27 05:16:06;;;;;;;23.93;10.00;;;;;;;4.90;71.42;102383.88;4996529;28;96598;-84
2022/11/27 05:18:32;;;;;;;21.27;9.40;;;;;;;4.87;71.24;102387.41;4998034;28;97577;-83
2022/11/27 05:21:06;;;;;;;22.57;10.13;;;;;;;4.84;71.53;102376.56;5004580;28;104602;-83
2022/11/27 05:23:32;;;;;;;27.27;9.53;;;;;;;4.81;71.36;102366.47;5010230;28;96913;-83
2022/11/27 05:25:58;;;;;;;23.53;10.37;;;;;;;4.79;71.21;102363.38;4997875;28;97262;-83
2022/11/27 05:28:24;;;;;;;28.53;11.00;;;;;;;4.78;71.34;102361.84;5000380;28;98985;-83
2022/11/27 05:30:49;;;;;;;23.07;10.27;;;;;;;4.78;71.54;102381.72;4992815;28;97547;-83
2022/11/27 05:33:17;;;;;;;24.67;10.33;;;;;;;4.71;71.55;102348.31;5001891;28;96913;-83
2022/11/27 05:35:42;;;;;;;24.87;10.10;;;;;;;4.74;71.34;102337.34;4994935;28;97056;-83
2022/11/27 05:38:08;;;;;;;23.83;10.00;;;;;;;4.76;71.56;102343.16;4997998;28;100816;-82
2022/11/27 05:40:34;;;;;;;22.53;10.47;;;;;;;4.74;71.53;102386.44;4999344;28;97589;-83
2022/11/27 05:43:00;;;;;;;25.27;9.93;;;;;;;4.76;71.62;102336.97;4997929;28;97409;-81
2022/11/27 05:45:25;;;;;;;27.23;11.37;;;;;;;4.76;71.74;102350.59;5003844;28;97410;-83
2022/11/27 05:47:51;;;;;;;30.50;10.83;;;;;;;4.68;71.81;102330.03;4994442;28;97821;-83
2022/11/27 05:50:16;;;;;;;25.67;10.97;;;;;;;4.79;71.74;102336.13;5004026;28;100231;-83
2022/11/27 05:52:41;;;;;;;29.23;10.73;;;;;;;4.79;71.74;102336.13;4997760;28;97301;-83
2022/11/27 05:55:07;;;;;;;30.70;11.00;;;;;;;4.81;71.84;102339.22;4997245;28;97475;-83
2022/11/27 05:57:33;;;;;;;21.23;10.53;;;;;;;4.81;71.79;102355.56;4999021;28;98494;-83
2022/11/27 05:59:58;;;;;;;20.90;10.27;;;;;;;4.81;71.94;102341.94;5007338;28;100396;-82
2022/11/27 06:02:24;;;;;;;33.57;12.10;;;;;;;4.83;71.87;102345.03;4995667;28;97437;-83
2022/11/27 06:04:50;;;;;;;30.07;10.40;;;;;;;4.85;71.80;102337.22;5002871;28;96917;-83
2022/11/27 06:07:15;;;;;;;27.13;11.67;;;;;;;4.85;71.97;102329.78;5004136;28;98644;-83
2022/11/27 06:09:40;;;;;;;26.77;10.67;;;;;;;4.86;72.00;102333.31;5004471;28;97269;-84
2022/11/27 06:12:06;;;;;;;28.97;10.40;;;;;;;4.86;71.56;102330.56;5002588;28;97684;-82
2022/11/27 06:14:33;;;;;;;24.17;10.37;;;;;;;4.79;71.98;102319.75;5000803;28;97136;-82
2022/11/27 06:17:00;;;;;;;21.50;8.93;;;;;;;4.82;71.54;102357.91;5003982;28;98916;-84
2022/11/27 06:19:25;;;;;;;25.20;9.67;;;;;;;4.86;71.60;102341.47;5007612;28;99349;-82
2022/11/27 06:21:50;;;;;;;27.87;10.50;;;;;;;4.82;71.52;102336.09;5006313;28;96906;-82
2022/11/27 06:24:16;;;;;;;22.67;9.90;;;;;;;4.79;71.69;102330.66;5000371;28;97222;-81
2022/11/27 06:26:41;;;;;;;24.40;10.73;;;;;;;4.79;71.61;102326.00;5002086;28;102618;-83
2022/11/27 06:29:08;;;;;;;22.70;9.77;;;;;;;4.77;71.63;102322.13;5004664;28;98614;-82
2022/11/27 06:31:33;;;;;;;25.00;9.90;;;;;;;4.72;71.66;102325.34;5004955;28;97052;-82
2022/11/27 06:33:59;;;;;;;27.27;9.80;;;;;;;4.71;71.61;102324.56;5007881;28;97793;-82
2022/11/27 06:36:28;;;;;;;27.33;9.40;;;;;;;4.69;71.43;102334.31;4999811;28;97502;-82
2022/11/27 06:38:54;;;;;;;38.27;10.90;;;;;;;4.66;71.27;102316.06;4996841;28;97652;-81
2022/11/27 06:41:21;;;;;;;36.80;10.43;;;;;;;4.63;71.46;102304.00;5004273;28;97238;-82
2022/11/27 06:43:47;;;;;;;31.87;10.60;;;;;;;4.60;71.43;102321.22;5001846;27;97147;-82
2022/11/27 06:46:15;;;;;;;22.63;9.37;;;;;;;4.54;71.82;102325.56;5000021;28;98916;-82
2022/11/27 06:48:41;;;;;;;22.80;9.37;;;;;;;4.55;71.61;102313.47;4997361;27;97060;-82
2022/11/27 06:51:10;;;;;;;25.00;9.83;;;;;;;4.52;71.82;102312.34;4993286;28;97432;-82
2022/11/27 06:53:36;;;;;;;20.53;8.13;;;;;;;4.53;71.56;102337.66;4999741;28;97348;-83
2022/11/27 06:56:03;;;;;;;22.77;8.93;;;;;;;4.50;71.46;102303.81;5009156;28;100603;-82
2022/11/27 06:58:29;;;;;;;23.00;8.80;;;;;;;4.52;71.61;102317.78;5001085;28;103043;-82
2022/11/27 07:00:58;;;;;;;22.90;8.70;;;;;;;4.52;71.35;102308.88;5001193;28;97829;-81
2022/11/27 07:03:24;;;;;;;24.33;9.33;;;;;;;4.52;71.29;102317.03;5000753;28;97026;-82
2022/11/27 07:05:50;;;;;;;25.27;9.40;;;;;;;4.50;71.52;102306.53;4995641;28;99025;-82
2022/11/27 07:08:15;;;;;;;23.27;8.53;;;;;;;4.47;71.47;102322.94;5003124;28;98672;-82
2022/11/27 07:10:41;;;;;;;21.93;9.37;;;;;;;4.50;71.59;102305.75;5004578;28;97648;-82
2022/11/27 07:13:06;;;;;;;20.73;8.97;;;;;;;4.48;71.53;102295.28;5001547;28;97167;-83
2022/11/27 07:15:32;;;;;;;31.10;11.00;;;;;;;4.47;71.31;102299.19;4996465;28;100365;-82
2022/11/27 07:17:57;;;;;;;27.37;10.27;;;;;;;4.45;71.50;102312.47;5010195;28;101306;-81
2022/11/27 07:20:23;;;;;;;27.93;10.57;;;;;;;4.44;71.61;102293.78;5000944;28;96691;-83
2022/11/27 07:22:48;;;;;;;26.07;9.87;;;;;;;4.49;71.54;102293.31;4999057;28;97307;-81
2022/11/27 07:25:14;;;;;;;30.13;9.90;;;;;;;4.49;71.74;102291.38;4997258;28;97699;-82
2022/11/27 07:27:39;;;;;;;19.03;8.90;;;;;;;4.46;71.58;102275.84;4998165;28;98483;-81
2022/11/27 07:30:05;;;;;;;21.80;9.17;;;;;;;4.50;72.10;102290.19;5000239;28;97176;-82
2022/11/27 07:32:31;;;;;;;21.30;8.67;;;;;;;4.52;71.91;102282.34;4997060;28;97306;-82
2022/11/27 07:34:56;;;;;;;34.30;10.10;;;;;;;4.51;71.94;102275.38;5003131;28;99136;-82
2022/11/27 07:37:22;;;;;;;26.03;9.70;;;;;;;4.55;71.77;102284.28;5005116;28;98552;-84
2022/11/27 07:39:47;;;;;;;23.03;9.43;;;;;;;4.59;71.72;102278.03;4999496;28;97109;-80
2022/11/27 07:42:12;;;;;;;24.87;8.70;;;;;;;4.61;71.89;102262.78;5006541;28;97321;-82
2022/11/27 07:44:38;;;;;;;18.93;8.57;;;;;;;4.63;71.93;102279.47;5000912;28;98089;-83
2022/11/27 07:47:03;;;;;;;19.20;8.43;;;;;;;4.63;72.04;102274.03;4995727;28;97381;-81
2022/11/27 07:49:28;;;;;;;21.43;8.70;;;;;;;4.62;71.84;102283.41;5000648;28;96827;-82
2022/11/27 07:51:54;;;;;;;20.60;8.80;;;;;;;4.67;71.97;102282.19;4993719;28;97064;-82
2022/11/27 07:54:19;;;;;;;23.20;8.30;;;;;;;4.70;71.83;102284.06;5001401;28;98506;-81
2022/11/27 07:56:44;;;;;;;19.70;8.17;;;;;;;4.66;71.82;102284.13;4996997;28;97270;-82
2022/11/27 07:59:10;;;;;;;18.80;7.70;;;;;;;4.75;71.94;102267.25;5000307;28;97032;-82
2022/11/27 08:01:35;;;;;;;22.70;7.83;;;;;;;4.78;71.85;102271.88;4996688;28;97022;-83
2022/11/27 08:04:00;;;;;;;18.67;7.30;;;;;;;4.83;71.81;102274.13;5001626;28;98984;-83
2022/11/27 08:06:26;;;;;;;17.53;7.60;;;;;;;4.84;72.09;102311.13;4997801;28;101406;-82
2022/11/27 08:08:54;;;;;;;19.83;8.47;;;;;;;4.90;71.87;102269.34;4998889;28;97560;-82
2022/11/27 08:11:30;;;;;;;23.07;7.47;;;;;;;4.94;72.33;102256.41;4999877;28;97151;-82
2022/11/27 08:14:00;;;;;;;22.27;8.60;;;;;;;4.99;72.41;102264.16;4997674;28;97239;-82
2022/11/27 08:16:27;;;;;;;18.33;8.40;;;;;;;5.08;72.32;102261.66;4996952;28;97163;-83
2022/11/27 08:18:52;;;;;;;17.40;7.80;;;;;;;5.18;72.39;102273.56;4999290;28;103315;-84
2022/11/27 08:21:18;;;;;;;19.23;8.63;;;;;;;5.27;72.51;102260.16;4999997;28;97022;-81
2022/11/27 08:23:44;;;;;;;24.63;9.67;;;;;;;5.38;72.41;102282.59;4999564;28;97846;-82
2022/11/27 08:26:10;;;;;;;18.83;8.37;;;;;;;5.48;72.27;102268.00;4998123;28;98229;-82
2022/11/27 08:28:36;;;;;;;22.10;9.20;;;;;;;5.57;72.39;102265.47;4998824;28;97261;-81
2022/11/27 08:31:03;;;;;;;21.67;9.20;;;;;;;5.67;72.23;102263.72;4998308;28;98724;-82
2022/11/27 08:33:30;;;;;;;19.20;8.80;;;;;;;5.72;72.24;102261.28;4998289;28;100723;-83
2022/11/27 08:35:55;;;;;;;15.93;8.87;;;;;;;5.78;72.57;102258.84;4994160;28;98796;-83
2022/11/27 08:38:21;;;;;;;21.20;8.63;;;;;;;5.81;72.56;102242.38;4992562;28;97021;-82
2022/11/27 08:40:56;;;;;;;17.50;8.50;;;;;;;5.88;72.40;102245.00;5000098;28;97371;-82
2022/11/27 08:43:22;;;;;;;16.37;8.37;;;;;;;5.93;72.49;102255.44;4996101;28;98577;-82
2022/11/27 08:45:48;;;;;;;18.00;8.40;;;;;;;5.95;72.59;102242.13;4998846;28;99454;-82
2022/11/27 08:48:14;;;;;;;14.17;7.77;;;;;;;6.03;72.39;102261.88;4993698;28;97268;-83
2022/11/27 08:50:40;;;;;;;16.10;8.80;;;;;;;6.10;72.90;102255.50;4996892;28;96794;-82
2022/11/27 08:53:05;;;;;;;14.33;7.37;;;;;;;6.13;72.70;102243.72;5005481;28;97526;-82
2022/11/27 08:55:30;;;;;;;16.13;8.13;;;;;;;6.16;73.07;102246.38;5005703;28;97478;-83
2022/11/27 08:57:56;;;;;;;17.93;9.50;;;;;;;6.30;72.66;102243.34;4995812;28;101874;-82
2022/11/27 09:00:21;;;;;;;18.70;8.43;;;;;;;6.37;72.69;102240.47;5000920;28;97246;-82
2022/11/27 09:02:47;;;;;;;17.20;8.60;;;;;;;6.41;72.54;102279.44;4998704;28;98821;-83
2022/11/27 09:05:12;;;;;;;19.33;9.47;;;;;;;6.50;72.58;102235.88;4995003;28;100179;-83
2022/11/27 09:07:39;;;;;;;17.10;8.67;;;;;;;6.53;72.57;102237.75;4999599;28;97021;-83
2022/11/27 09:10:06;;;;;;;16.57;7.70;;;;;;;6.60;72.61;102245.78;4997138;28;96816;-83
2022/11/27 09:12:31;;;;;;;15.47;7.93;;;;;;;6.67;72.82;102248.38;4996222;28;99070;-83
2022/11/27 09:14:56;;;;;;;17.43;7.63;;;;;;;6.70;72.83;102213.94;4996803;28;103375;-83
2022/11/27 09:17:22;;;;;;;14.33;7.50;;;;;;;6.74;72.84;102214.59;4996956;28;97446;-83
2022/11/27 09:19:47;;;;;;;15.70;7.93;;;;;;;6.81;72.88;102234.34;4996031;28;96915;-82
2022/11/27 09:22:13;;;;;;;19.03;7.93;;;;;;;6.87;72.75;102228.38;5000192;28;99163;-83
2022/11/27 09:24:38;;;;;;;12.53;7.27;;;;;;;6.92;72.69;102212.22;4998396;28;97774;-83
2022/11/27 09:27:04;;;;;;;16.63;7.60;;;;;;;6.96;73.15;102214.84;4996857;28;97074;-84
2022/11/27 09:29:29;;;;;;;14.50;8.17;;;;;;;6.99;72.74;102216.75;4996985;28;97244;-83
2022/11/27 09:31:55;;;;;;;15.87;8.57;;;;;;;7.01;72.87;102220.56;4999256;28;98955;-82
2022/11/27 09:34:20;;;;;;;14.43;7.63;;;;;;;6.98;72.98;102205.03;4999695;28;97279;-83
2022/11/27 09:36:45;;;;;;;13.77;8.20;;;;;;;7.00;73.12;102205.34;4996465;28;97260;-83
2022/11/27 09:39:12;;;;;;;14.67;8.17;;;;;;;7.03;72.98;102223.66;4995741;28;97651;-83
2022/11/27 09:41:38;;;;;;;16.73;8.93;;;;;;;7.06;73.01;102203.63;4994339;28;99174;-83
2022/11/27 09:44:21;;;;;;;16.20;7.73;;;;;;;7.09;73.24;102212.97;4996561;28;97514;-83
2022/11/27 09:46:48;;;;;;;21.23;8.90;;;;;;;7.17;73.28;102195.16;4993038;28;97300;-83
2022/11/27 09:49:24;;;;;;;24.50;9.07;;;;;;;7.25;73.25;102194.53;5001371;28;97373;-82
2022/11/27 09:51:52;;;;;;;15.53;8.27;;;;;;;7.35;73.33;102192.72;4994286;28;97958;-82
2022/11/27 09:54:25;;;;;;;20.37;9.33;;;;;;;7.48;73.34;102180.63;4998103;28;96884;-83
2022/11/27 09:56:53;;;;;;;17.30;7.80;;;;;;;7.58;73.39;102186.97;4998607;28;97208;-83
2022/11/27 09:59:21;;;;;;;15.73;9.20;;;;;;;7.75;73.44;102182.22;5006349;28;97033;-82
2022/11/27 10:01:47;;;;;;;18.90;8.87;;;;;;;7.87;73.47;102189.69;5000474;28;102866;-83
2022/11/27 10:04:15;;;;;;;13.47;8.17;;;;;;;7.95;73.14;102193.78;4995123;28;97682;-83
2022/11/27 10:07:09;;;;;;;16.30;8.47;;;;;;;8.04;73.36;102186.41;4997762;28;97575;-83
2022/11/27 10:10:01;;;;;;;15.47;8.00;;;;;;;8.07;73.00;102196.53;4995124;28;97282;-83
2022/11/27 10:12:29;;;;;;;14.50;8.20;;;;;;;8.11;73.38;102166.25;5000079;28;101518;-83
2022/11/27 10:15:10;;;;;;;13.33;8.43;;;;;;;8.15;73.15;102164.16;5000742;28;97072;-81
2022/11/27 10:17:50;;;;;;;12.00;7.73;;;;;;;8.17;73.28;102168.00;4997679;28;97304;-84
2022/11/27 10:20:50;;;;;;;16.43;8.20;;;;;;;8.15;73.50;102162.19;5002677;28;97394;-82
2022/11/27 10:23:33;;;;;;;12.43;7.03;;;;;;;8.19;73.40;102162.84;4959171;28;103151;-83
2022/11/27 10:26:20;;;;;;;12.93;7.57;;;;;;;8.20;73.42;102158.91;4984603;28;103392;-82
2022/11/27 10:28:48;;;;;;;13.07;6.97;;;;;;;8.26;73.57;102156.41;4976699;28;96985;-83
2022/11/27 10:31:36;;;;;;;15.70;8.00;;;;;;;8.27;73.50;102141.50;4973279;28;98262;-83
2022/11/27 10:34:35;;;;;;;13.47;7.27;;;;;;;8.34;73.46;102140.50;4977136;28;97545;-85
2022/11/27 10:37:09;;;;;;;12.50;8.10;;;;;;;8.37;73.65;102145.09;4971822;28;104546;-82
2022/11/27 10:39:45;;;;;;;17.97;8.10;;;;;;;8.45;73.80;102133.50;4998979;28;104112;-82
2022/11/27 10:42:23;;;;;;;14.50;7.20;;;;;;;8.49;73.82;102139.63;4998508;27;97085;-83
2022/11/27 10:45:07;;;;;;;13.47;7.97;;;;;;;8.56;73.72;102130.41;5001601;28;102490;-82
2022/11/27 10:47:33;;;;;;;18.00;8.30;;;;;;;8.65;73.62;102150.44;4992602;28;102920;-83
2022/11/27 10:49:58;;;;;;;16.30;7.37;;;;;;;8.71;73.54;102158.91;4999412;28;97128;-83
2022/11/27 10:52:25;;;;;;;14.23;7.97;;;;;;;8.77;73.67;102124.97;5011525;27;97270;-83
2022/11/27 10:55:00;;;;;;;14.27;7.83;;;;;;;8.86;73.57;102124.28;5000158;28;99104;-83
2022/11/27 10:57:44;;;;;;;14.30;7.13;;;;;;;8.89;73.67;102129.63;4980841;28;101445;-82
2022/11/27 11:00:24;;;;;;;13.20;8.00;;;;;;;8.92;73.61;102119.75;4981781;28;97279;-82
2022/11/27 11:03:00;;;;;;;17.10;7.47;;;;;;;9.00;73.86;102127.28;4998103;28;97279;-81
2022/11/27 11:05:27;;;;;;;14.20;7.97;;;;;;;9.05;73.67;102125.97;5005503;28;100342;-82
2022/11/27 11:07:59;;;;;;;9.83;7.37;;;;;;;9.12;73.70;102125.72;4999273;28;99370;-83
2022/11/27 11:10:37;;;;;;;11.80;7.40;;;;;;;9.17;73.68;102124.38;4996173;28;97456;-80
2022/11/27 11:13:15;;;;;;;15.50;7.67;;;;;;;9.24;73.77;102124.88;4995744;28;96750;-83
2022/11/27 11:15:50;;;;;;;14.27;7.53;;;;;;;9.32;73.60;102117.16;5009269;28;97169;-83
2022/11/27 11:18:20;;;;;;;10.20;7.10;;;;;;;9.38;73.69;102124.38;4977089;28;103007;-82
2022/11/27 11:20:48;;;;;;;17.47;7.90;;;;;;;9.46;73.67;102117.41;4949134;28;97271;-83
2022/11/27 11:24:31;;;;;;;;;;;;;;;;;;;;;
2022/11/27 11:26:58;;;;;;;13.93;8.37;;;;;;;9.58;73.50;102141.28;4919981;28;100427;-82
2022/11/27 11:29:51;;;;;;;11.40;7.07;;;;;;;9.65;73.23;102115.53;4986105;28;101195;-83
2022/11/27 11:32:20;;;;;;;17.07;7.20;;;;;;;9.67;73.38;102107.59;5000693;28;97367;-83
2022/11/27 11:35:08;;;;;;;14.80;7.17;;;;;;;9.73;73.22;102100.31;4999757;28;97500;-82